sensor_id;sensor_type;location;lat;lon;timestamp;P1;durP1;ratioP1;P2;durP2;ratioP2
27804;SDS011;15183;51.350;11.102;2022-09-16T00:00:48;2.20;;;1.00;;
27804;SDS011;15183;51.350;11.102;2022-09-16T00:03:15;2.75;;;0.93;;
27804;SDS011;15183;51.350;11.102;2022-09-16T00:05:43;2.60;;;0.85;;
27804;SDS011;15183;51.350;11.102;2022-09-16T00:08:12;4.25;;;0.70;;
27804;SDS011;15183;51.350;11.102;2022-09-16T00:10:39;1.45;;;0.82;;
27804;SDS011;15183;51.350;11.102;2022-09-16T00:13:08;1.70;;;0.57;;
27804;SDS011;15183;51.350;11.102;2022-09-16T00:15:40;1.90;;;0.70;;
27804;SDS011;15183;51.350;11.102;2022-09-16T00:18:11;1.25;;;0.68;;
27804;SDS011;15183;51.350;11.102;2022-09-16T00:20:44;2.70;;;0.60;;
27804;SDS011;15183;51.350;11.102;2022-09-16T00:23:13;1.13;;;0.70;;
27804;SDS011;15183;51.350;11.102;2022-09-16T00:25:40;2.28;;;0.60;;
27804;SDS011;15183;51.350;11.102;2022-09-16T00:28:06;1.27;;;0.60;;
27804;SDS011;15183;51.350;11.102;2022-09-16T00:30:33;1.98;;;0.60;;
27804;SDS011;15183;51.350;11.102;2022-09-16T00:32:59;3.42;;;0.82;;
27804;SDS011;15183;51.350;11.102;2022-09-16T00:35:26;3.17;;;0.80;;
27804;SDS011;15183;51.350;11.102;2022-09-16T00:37:52;1.25;;;0.70;;
27804;SDS011;15183;51.350;11.102;2022-09-16T00:40:19;0.77;;;0.52;;
27804;SDS011;15183;51.350;11.102;2022-09-16T00:42:45;0.75;;;0.50;;
27804;SDS011;15183;51.350;11.102;2022-09-16T00:45:18;0.40;;;0.40;;
27804;SDS011;15183;51.350;11.102;2022-09-16T00:47:49;1.58;;;0.60;;
27804;SDS011;15183;51.350;11.102;2022-09-16T00:50:22;2.28;;;0.60;;
27804;SDS011;15183;51.350;11.102;2022-09-16T00:53:09;1.30;;;0.77;;
27804;SDS011;15183;51.350;11.102;2022-09-16T00:55:56;2.65;;;0.50;;
27804;SDS011;15183;51.350;11.102;2022-09-16T00:58:42;3.88;;;0.50;;
27804;SDS011;15183;51.350;11.102;2022-09-16T01:01:13;1.73;;;0.60;;
27804;SDS011;15183;51.350;11.102;2022-09-16T01:03:49;2.28;;;0.65;;
27804;SDS011;15183;51.350;11.102;2022-09-16T01:06:20;1.73;;;0.60;;
27804;SDS011;15183;51.350;11.102;2022-09-16T01:08:49;0.70;;;0.50;;
27804;SDS011;15183;51.350;11.102;2022-09-16T01:11:16;3.22;;;0.70;;
27804;SDS011;15183;51.350;11.102;2022-09-16T01:13:42;1.92;;;0.50;;
27804;SDS011;15183;51.350;11.102;2022-09-16T01:16:30;3.97;;;0.40;;
27804;SDS011;15183;51.350;11.102;2022-09-16T01:22:25;3.70;;;0.57;;
27804;SDS011;15183;51.350;11.102;2022-09-16T01:25:10;1.00;;;0.50;;
27804;SDS011;15183;51.350;11.102;2022-09-16T01:34:48;1.10;;;0.50;;
27804;SDS011;15183;51.350;11.102;2022-09-16T01:40:51;0.77;;;0.43;;
27804;SDS011;15183;51.350;11.102;2022-09-16T01:46:38;2.08;;;0.68;;
27804;SDS011;15183;51.350;11.102;2022-09-16T01:52:31;1.65;;;0.40;;
27804;SDS011;15183;51.350;11.102;2022-09-16T01:55:32;1.60;;;0.47;;
27804;SDS011;15183;51.350;11.102;2022-09-16T02:01:13;1.15;;;0.50;;
27804;SDS011;15183;51.350;11.102;2022-09-16T02:06:25;0.88;;;0.30;;
27804;SDS011;15183;51.350;11.102;2022-09-16T02:08:55;0.63;;;0.45;;
27804;SDS011;15183;51.350;11.102;2022-09-16T02:11:26;1.38;;;0.40;;
27804;SDS011;15183;51.350;11.102;2022-09-16T02:14:11;2.65;;;0.80;;
27804;SDS011;15183;51.350;11.102;2022-09-16T02:16:59;2.17;;;0.50;;
27804;SDS011;15183;51.350;11.102;2022-09-16T02:19:30;1.30;;;0.55;;
27804;SDS011;15183;51.350;11.102;2022-09-16T02:22:12;1.10;;;0.45;;
27804;SDS011;15183;51.350;11.102;2022-09-16T02:24:43;1.65;;;0.68;;
27804;SDS011;15183;51.350;11.102;2022-09-16T02:27:19;2.25;;;0.50;;
27804;SDS011;15183;51.350;11.102;2022-09-16T02:30:04;2.65;;;0.70;;
27804;SDS011;15183;51.350;11.102;2022-09-16T02:32:36;1.38;;;0.50;;
27804;SDS011;15183;51.350;11.102;2022-09-16T02:35:08;3.30;;;0.60;;
27804;SDS011;15183;51.350;11.102;2022-09-16T02:37:49;2.05;;;0.80;;
27804;SDS011;15183;51.350;11.102;2022-09-16T02:40:23;1.15;;;0.40;;
27804;SDS011;15183;51.350;11.102;2022-09-16T02:43:04;2.22;;;1.25;;
27804;SDS011;15183;51.350;11.102;2022-09-16T02:51:17;2.08;;;0.50;;
27804;SDS011;15183;51.350;11.102;2022-09-16T02:57:16;1.85;;;0.57;;
27804;SDS011;15183;51.350;11.102;2022-09-16T02:59:43;2.92;;;0.50;;
27804;SDS011;15183;51.350;11.102;2022-09-16T03:02:10;1.38;;;0.40;;
27804;SDS011;15183;51.350;11.102;2022-09-16T03:04:38;3.63;;;0.60;;
27804;SDS011;15183;51.350;11.102;2022-09-16T03:07:05;4.95;;;0.68;;
27804;SDS011;15183;51.350;11.102;2022-09-16T03:09:35;5.40;;;0.60;;
27804;SDS011;15183;51.350;11.102;2022-09-16T03:21:16;1.35;;;0.70;;
27804;SDS011;15183;51.350;11.102;2022-09-16T03:26:45;4.93;;;1.05;;
27804;SDS011;15183;51.350;11.102;2022-09-16T03:32:23;1.40;;;0.60;;
27804;SDS011;15183;51.350;11.102;2022-09-16T03:34:58;1.08;;;0.60;;
27804;SDS011;15183;51.350;11.102;2022-09-16T03:37:28;0.50;;;0.47;;
27804;SDS011;15183;51.350;11.102;2022-09-16T03:39:59;0.70;;;0.32;;
27804;SDS011;15183;51.350;11.102;2022-09-16T03:42:37;1.90;;;0.50;;
27804;SDS011;15183;51.350;11.102;2022-09-16T03:45:09;1.40;;;0.52;;
27804;SDS011;15183;51.350;11.102;2022-09-16T03:47:41;0.90;;;0.50;;
27804;SDS011;15183;51.350;11.102;2022-09-16T03:50:09;1.85;;;0.47;;
27804;SDS011;15183;51.350;11.102;2022-09-16T03:52:36;1.13;;;0.40;;
27804;SDS011;15183;51.350;11.102;2022-09-16T03:55:02;3.53;;;0.50;;
27804;SDS011;15183;51.350;11.102;2022-09-16T03:57:30;1.55;;;0.60;;
27804;SDS011;15183;51.350;11.102;2022-09-16T03:59:56;1.75;;;0.47;;
27804;SDS011;15183;51.350;11.102;2022-09-16T04:02:23;2.17;;;0.50;;
27804;SDS011;15183;51.350;11.102;2022-09-16T04:04:49;0.70;;;0.40;;
27804;SDS011;15183;51.350;11.102;2022-09-16T04:07:16;2.15;;;0.60;;
27804;SDS011;15183;51.350;11.102;2022-09-16T04:09:44;0.82;;;0.45;;
27804;SDS011;15183;51.350;11.102;2022-09-16T04:12:10;5.13;;;0.60;;
27804;SDS011;15183;51.350;11.102;2022-09-16T04:14:37;1.95;;;0.55;;
27804;SDS011;15183;51.350;11.102;2022-09-16T04:17:03;1.15;;;0.50;;
27804;SDS011;15183;51.350;11.102;2022-09-16T04:19:30;1.42;;;0.55;;
27804;SDS011;15183;51.350;11.102;2022-09-16T04:21:56;4.35;;;0.77;;
27804;SDS011;15183;51.350;11.102;2022-09-16T04:24:22;4.32;;;0.70;;
27804;SDS011;15183;51.350;11.102;2022-09-16T04:26:49;2.00;;;0.70;;
27804;SDS011;15183;51.350;11.102;2022-09-16T04:29:15;3.33;;;0.50;;
27804;SDS011;15183;51.350;11.102;2022-09-16T04:31:42;2.38;;;0.50;;
27804;SDS011;15183;51.350;11.102;2022-09-16T04:34:09;1.02;;;0.40;;
27804;SDS011;15183;51.350;11.102;2022-09-16T04:36:38;0.55;;;0.40;;
27804;SDS011;15183;51.350;11.102;2022-09-16T04:39:04;1.27;;;0.70;;
27804;SDS011;15183;51.350;11.102;2022-09-16T04:41:31;3.25;;;0.68;;
27804;SDS011;15183;51.350;11.102;2022-09-16T04:43:58;0.98;;;0.47;;
27804;SDS011;15183;51.350;11.102;2022-09-16T04:46:26;3.20;;;0.55;;
27804;SDS011;15183;51.350;11.102;2022-09-16T04:48:55;5.32;;;0.50;;
27804;SDS011;15183;51.350;11.102;2022-09-16T04:51:23;4.10;;;0.60;;
27804;SDS011;15183;51.350;11.102;2022-09-16T04:53:52;2.78;;;0.50;;
27804;SDS011;15183;51.350;11.102;2022-09-16T04:56:22;1.38;;;0.40;;
27804;SDS011;15183;51.350;11.102;2022-09-16T04:58:52;1.60;;;0.43;;
27804;SDS011;15183;51.350;11.102;2022-09-16T05:01:23;1.30;;;0.60;;
27804;SDS011;15183;51.350;11.102;2022-09-16T05:03:53;2.55;;;0.50;;
27804;SDS011;15183;51.350;11.102;2022-09-16T05:06:22;2.08;;;0.60;;
27804;SDS011;15183;51.350;11.102;2022-09-16T05:08:57;2.33;;;0.95;;
27804;SDS011;15183;51.350;11.102;2022-09-16T05:11:26;2.72;;;0.52;;
27804;SDS011;15183;51.350;11.102;2022-09-16T05:13:59;2.05;;;0.80;;
27804;SDS011;15183;51.350;11.102;2022-09-16T05:16:26;1.65;;;0.60;;
27804;SDS011;15183;51.350;11.102;2022-09-16T05:18:56;1.20;;;0.60;;
27804;SDS011;15183;51.350;11.102;2022-09-16T05:21:25;0.90;;;0.50;;
27804;SDS011;15183;51.350;11.102;2022-09-16T05:23:53;1.08;;;0.57;;
27804;SDS011;15183;51.350;11.102;2022-09-16T05:26:41;2.92;;;0.50;;
27804;SDS011;15183;51.350;11.102;2022-09-16T05:29:15;2.65;;;0.60;;
27804;SDS011;15183;51.350;11.102;2022-09-16T05:31:47;1.08;;;0.50;;
27804;SDS011;15183;51.350;11.102;2022-09-16T05:34:15;2.05;;;1.05;;
27804;SDS011;15183;51.350;11.102;2022-09-16T05:36:44;2.97;;;1.60;;
27804;SDS011;15183;51.350;11.102;2022-09-16T05:39:22;2.35;;;1.10;;
27804;SDS011;15183;51.350;11.102;2022-09-16T05:41:52;3.20;;;1.27;;
27804;SDS011;15183;51.350;11.102;2022-09-16T05:44:23;2.50;;;1.17;;
27804;SDS011;15183;51.350;11.102;2022-09-16T05:46:51;2.75;;;1.35;;
27804;SDS011;15183;51.350;11.102;2022-09-16T05:49:18;2.72;;;1.70;;
27804;SDS011;15183;51.350;11.102;2022-09-16T05:51:46;3.38;;;1.75;;
27804;SDS011;15183;51.350;11.102;2022-09-16T05:54:13;2.97;;;1.42;;
27804;SDS011;15183;51.350;11.102;2022-09-16T05:56:42;2.03;;;1.25;;
27804;SDS011;15183;51.350;11.102;2022-09-16T05:59:13;3.65;;;2.03;;
27804;SDS011;15183;51.350;11.102;2022-09-16T06:01:40;5.53;;;2.42;;
27804;SDS011;15183;51.350;11.102;2022-09-16T06:04:09;3.90;;;1.98;;
27804;SDS011;15183;51.350;11.102;2022-09-16T06:06:41;3.75;;;2.72;;
27804;SDS011;15183;51.350;11.102;2022-09-16T06:09:11;3.95;;;2.63;;
27804;SDS011;15183;51.350;11.102;2022-09-16T06:11:48;4.22;;;2.45;;
27804;SDS011;15183;51.350;11.102;2022-09-16T06:14:17;3.13;;;1.63;;
27804;SDS011;15183;51.350;11.102;2022-09-16T06:16:44;2.47;;;1.45;;
27804;SDS011;15183;51.350;11.102;2022-09-16T06:19:11;2.70;;;1.27;;
27804;SDS011;15183;51.350;11.102;2022-09-16T06:21:40;3.15;;;1.98;;
27804;SDS011;15183;51.350;11.102;2022-09-16T06:24:08;2.72;;;1.40;;
27804;SDS011;15183;51.350;11.102;2022-09-16T06:26:37;4.18;;;2.05;;
27804;SDS011;15183;51.350;11.102;2022-09-16T06:29:06;2.90;;;1.83;;
27804;SDS011;15183;51.350;11.102;2022-09-16T06:31:34;3.90;;;2.03;;
27804;SDS011;15183;51.350;11.102;2022-09-16T06:34:02;6.25;;;2.78;;
27804;SDS011;15183;51.350;11.102;2022-09-16T06:36:31;3.25;;;1.40;;
27804;SDS011;15183;51.350;11.102;2022-09-16T06:39:04;4.68;;;2.05;;
27804;SDS011;15183;51.350;11.102;2022-09-16T06:41:31;4.65;;;1.77;;
27804;SDS011;15183;51.350;11.102;2022-09-16T06:43:59;4.15;;;1.85;;
27804;SDS011;15183;51.350;11.102;2022-09-16T06:46:27;6.50;;;2.67;;
27804;SDS011;15183;51.350;11.102;2022-09-16T06:48:54;5.75;;;3.17;;
27804;SDS011;15183;51.350;11.102;2022-09-16T06:51:24;4.90;;;2.70;;
27804;SDS011;15183;51.350;11.102;2022-09-16T06:54:03;2.95;;;2.00;;
27804;SDS011;15183;51.350;11.102;2022-09-16T06:56:32;5.35;;;2.25;;
27804;SDS011;15183;51.350;11.102;2022-09-16T06:59:00;4.80;;;2.60;;
27804;SDS011;15183;51.350;11.102;2022-09-16T07:01:27;2.40;;;1.60;;
27804;SDS011;15183;51.350;11.102;2022-09-16T07:03:55;2.13;;;1.77;;
27804;SDS011;15183;51.350;11.102;2022-09-16T07:06:23;3.00;;;1.38;;
27804;SDS011;15183;51.350;11.102;2022-09-16T07:08:54;2.95;;;1.70;;
27804;SDS011;15183;51.350;11.102;2022-09-16T07:11:21;2.88;;;1.70;;
27804;SDS011;15183;51.350;11.102;2022-09-16T07:13:49;2.55;;;1.17;;
27804;SDS011;15183;51.350;11.102;2022-09-16T07:16:20;2.88;;;1.90;;
27804;SDS011;15183;51.350;11.102;2022-09-16T07:18:56;0.98;;;0.85;;
27804;SDS011;15183;51.350;11.102;2022-09-16T07:21:24;1.75;;;0.73;;
27804;SDS011;15183;51.350;11.102;2022-09-16T07:23:56;3.40;;;1.73;;
27804;SDS011;15183;51.350;11.102;2022-09-16T07:26:25;3.00;;;1.65;;
27804;SDS011;15183;51.350;11.102;2022-09-16T07:28:54;1.70;;;1.08;;
27804;SDS011;15183;51.350;11.102;2022-09-16T07:31:28;3.20;;;1.85;;
27804;SDS011;15183;51.350;11.102;2022-09-16T07:33:58;2.03;;;1.73;;
27804;SDS011;15183;51.350;11.102;2022-09-16T07:36:30;4.65;;;1.40;;
27804;SDS011;15183;51.350;11.102;2022-09-16T07:39:00;2.40;;;1.05;;
27804;SDS011;15183;51.350;11.102;2022-09-16T07:41:28;5.72;;;1.52;;
27804;SDS011;15183;51.350;11.102;2022-09-16T07:43:58;2.00;;;1.05;;
27804;SDS011;15183;51.350;11.102;2022-09-16T07:46:26;2.63;;;1.55;;
27804;SDS011;15183;51.350;11.102;2022-09-16T07:48:57;1.67;;;0.70;;
27804;SDS011;15183;51.350;11.102;2022-09-16T07:51:26;2.28;;;0.60;;
27804;SDS011;15183;51.350;11.102;2022-09-16T07:53:58;3.33;;;0.70;;
27804;SDS011;15183;51.350;11.102;2022-09-16T07:56:29;3.90;;;0.98;;
27804;SDS011;15183;51.350;11.102;2022-09-16T07:59:00;5.38;;;1.00;;
27804;SDS011;15183;51.350;11.102;2022-09-16T08:01:28;5.97;;;0.80;;
27804;SDS011;15183;51.350;11.102;2022-09-16T08:03:55;1.73;;;0.70;;
27804;SDS011;15183;51.350;11.102;2022-09-16T08:06:24;1.73;;;0.70;;
27804;SDS011;15183;51.350;11.102;2022-09-16T08:08:54;1.45;;;0.60;;
27804;SDS011;15183;51.350;11.102;2022-09-16T08:11:22;1.42;;;0.60;;
27804;SDS011;15183;51.350;11.102;2022-09-16T08:13:50;1.38;;;0.50;;
27804;SDS011;15183;51.350;11.102;2022-09-16T08:16:17;2.05;;;0.50;;
27804;SDS011;15183;51.350;11.102;2022-09-16T08:18:47;1.80;;;0.50;;
27804;SDS011;15183;51.350;11.102;2022-09-16T08:21:19;2.10;;;0.70;;
27804;SDS011;15183;51.350;11.102;2022-09-16T08:23:50;1.25;;;0.43;;
27804;SDS011;15183;51.350;11.102;2022-09-16T08:26:17;2.75;;;0.57;;
27804;SDS011;15183;51.350;11.102;2022-09-16T08:28:47;1.60;;;0.50;;
27804;SDS011;15183;51.350;11.102;2022-09-16T08:31:15;1.63;;;0.77;;
27804;SDS011;15183;51.350;11.102;2022-09-16T08:33:46;1.67;;;0.50;;
27804;SDS011;15183;51.350;11.102;2022-09-16T08:36:16;3.05;;;0.70;;
27804;SDS011;15183;51.350;11.102;2022-09-16T08:38:48;1.38;;;0.40;;
27804;SDS011;15183;51.350;11.102;2022-09-16T08:41:23;1.08;;;0.40;;
27804;SDS011;15183;51.350;11.102;2022-09-16T08:47:06;5.85;;;0.57;;
27804;SDS011;15183;51.350;11.102;2022-09-16T08:49:55;1.00;;;0.40;;
27804;SDS011;15183;51.350;11.102;2022-09-16T08:54:59;5.63;;;0.70;;
27804;SDS011;15183;51.350;11.102;2022-09-16T08:58:03;1.48;;;0.75;;
27804;SDS011;15183;51.350;11.102;2022-09-16T09:00:52;1.13;;;0.40;;
27804;SDS011;15183;51.350;11.102;2022-09-16T09:06:10;8.23;;;0.52;;
27804;SDS011;15183;51.350;11.102;2022-09-16T09:20:26;3.78;;;0.57;;
27804;SDS011;15183;51.350;11.102;2022-09-16T09:29:04;2.47;;;0.40;;
27804;SDS011;15183;51.350;11.102;2022-09-16T09:34:51;2.70;;;0.60;;
27804;SDS011;15183;51.350;11.102;2022-09-16T09:37:45;2.25;;;0.65;;
27804;SDS011;15183;51.350;11.102;2022-09-16T09:40:46;2.67;;;0.63;;
27804;SDS011;15183;51.350;11.102;2022-09-16T09:43:45;3.38;;;0.70;;
27804;SDS011;15183;51.350;11.102;2022-09-16T09:46:36;2.47;;;0.70;;
27804;SDS011;15183;51.350;11.102;2022-09-16T09:49:14;1.05;;;0.73;;
27804;SDS011;15183;51.350;11.102;2022-09-16T09:52:06;2.97;;;0.85;;
27804;SDS011;15183;51.350;11.102;2022-09-16T09:54:58;2.25;;;0.93;;
27804;SDS011;15183;51.350;11.102;2022-09-16T09:57:39;3.38;;;0.90;;
27804;SDS011;15183;51.350;11.102;2022-09-16T10:00:20;2.78;;;0.70;;
27804;SDS011;15183;51.350;11.102;2022-09-16T10:02:47;1.55;;;0.52;;
27804;SDS011;15183;51.350;11.102;2022-09-16T10:05:21;2.00;;;0.85;;
27804;SDS011;15183;51.350;11.102;2022-09-16T10:07:56;0.65;;;0.60;;
27804;SDS011;15183;51.350;11.102;2022-09-16T10:10:52;1.48;;;0.50;;
27804;SDS011;15183;51.350;11.102;2022-09-16T10:13:24;1.85;;;0.65;;
27804;SDS011;15183;51.350;11.102;2022-09-16T10:16:05;2.92;;;0.75;;
27804;SDS011;15183;51.350;11.102;2022-09-16T10:18:38;4.20;;;0.75;;
27804;SDS011;15183;51.350;11.102;2022-09-16T10:21:06;3.67;;;0.60;;
27804;SDS011;15183;51.350;11.102;2022-09-16T10:23:36;2.05;;;0.73;;
27804;SDS011;15183;51.350;11.102;2022-09-16T10:26:15;1.42;;;0.75;;
27804;SDS011;15183;51.350;11.102;2022-09-16T10:28:58;1.60;;;0.60;;
27804;SDS011;15183;51.350;11.102;2022-09-16T10:31:44;6.72;;;0.50;;
27804;SDS011;15183;51.350;11.102;2022-09-16T10:34:14;0.40;;;0.25;;
27804;SDS011;15183;51.350;11.102;2022-09-16T10:37:04;1.23;;;0.30;;
27804;SDS011;15183;51.350;11.102;2022-09-16T10:39:53;1.15;;;0.38;;
27804;SDS011;15183;51.350;11.102;2022-09-16T10:42:26;1.50;;;0.50;;
27804;SDS011;15183;51.350;11.102;2022-09-16T10:44:54;5.72;;;1.85;;
27804;SDS011;15183;51.350;11.102;2022-09-16T10:47:39;5.30;;;2.10;;
27804;SDS011;15183;51.350;11.102;2022-09-16T10:50:16;1.98;;;0.77;;
27804;SDS011;15183;51.350;11.102;2022-09-16T10:52:46;0.98;;;0.85;;
27804;SDS011;15183;51.350;11.102;2022-09-16T10:55:29;6.72;;;2.40;;
27804;SDS011;15183;51.350;11.102;2022-09-16T10:58:16;1.88;;;1.25;;
27804;SDS011;15183;51.350;11.102;2022-09-16T11:06:42;2.67;;;1.02;;
27804;SDS011;15183;51.350;11.102;2022-09-16T11:09:25;2.40;;;1.70;;
27804;SDS011;15183;51.350;11.102;2022-09-16T11:20:44;3.53;;;2.40;;
27804;SDS011;15183;51.350;11.102;2022-09-16T11:26:21;7.20;;;3.08;;
27804;SDS011;15183;51.350;11.102;2022-09-16T11:28:57;5.10;;;2.35;;
27804;SDS011;15183;51.350;11.102;2022-09-16T11:37:45;4.95;;;2.42;;
27804;SDS011;15183;51.350;11.102;2022-09-16T11:49:46;6.35;;;1.95;;
27804;SDS011;15183;51.350;11.102;2022-09-16T11:52:56;3.25;;;1.60;;
27804;SDS011;15183;51.350;11.102;2022-09-16T11:59:14;2.63;;;1.75;;
27804;SDS011;15183;51.350;11.102;2022-09-16T12:02:14;4.00;;;1.85;;
27804;SDS011;15183;51.350;11.102;2022-09-16T12:05:02;5.88;;;2.33;;
27804;SDS011;15183;51.350;11.102;2022-09-16T12:08:03;4.15;;;2.03;;
27804;SDS011;15183;51.350;11.102;2022-09-16T12:10:44;5.22;;;1.45;;
27804;SDS011;15183;51.350;11.102;2022-09-16T12:15:49;2.90;;;1.00;;
27804;SDS011;15183;51.350;11.102;2022-09-16T12:18:56;3.50;;;1.75;;
27804;SDS011;15183;51.350;11.102;2022-09-16T12:21:22;2.42;;;1.25;;
27804;SDS011;15183;51.350;11.102;2022-09-16T12:23:56;1.88;;;1.27;;
27804;SDS011;15183;51.350;11.102;2022-09-16T12:26:37;1.52;;;1.05;;
27804;SDS011;15183;51.350;11.102;2022-09-16T12:35:42;4.47;;;1.30;;
27804;SDS011;15183;51.350;11.102;2022-09-16T12:38:29;1.75;;;0.77;;
27804;SDS011;15183;51.350;11.102;2022-09-16T12:41:02;3.47;;;0.80;;
27804;SDS011;15183;51.350;11.102;2022-09-16T12:58:52;2.17;;;1.30;;
27804;SDS011;15183;51.350;11.102;2022-09-16T13:01:47;3.20;;;1.38;;
27804;SDS011;15183;51.350;11.102;2022-09-16T13:04:18;4.63;;;0.95;;
27804;SDS011;15183;51.350;11.102;2022-09-16T13:06:51;4.45;;;1.00;;
27804;SDS011;15183;51.350;11.102;2022-09-16T13:09:45;2.88;;;0.70;;
27804;SDS011;15183;51.350;11.102;2022-09-16T13:12:19;6.63;;;0.95;;
27804;SDS011;15183;51.350;11.102;2022-09-16T13:14:54;4.20;;;1.17;;
27804;SDS011;15183;51.350;11.102;2022-09-16T13:20:01;1.33;;;0.57;;
27804;SDS011;15183;51.350;11.102;2022-09-16T13:22:42;1.63;;;0.82;;
27804;SDS011;15183;51.350;11.102;2022-09-16T13:25:21;3.75;;;1.15;;
27804;SDS011;15183;51.350;11.102;2022-09-16T13:28:21;4.10;;;1.23;;
27804;SDS011;15183;51.350;11.102;2022-09-16T13:33:39;3.42;;;0.77;;
27804;SDS011;15183;51.350;11.102;2022-09-16T13:38:46;2.80;;;0.70;;
27804;SDS011;15183;51.350;11.102;2022-09-16T13:47:15;3.38;;;0.75;;
27804;SDS011;15183;51.350;11.102;2022-09-16T13:49:55;2.58;;;0.50;;
27804;SDS011;15183;51.350;11.102;2022-09-16T14:00:58;1.45;;;0.60;;
27804;SDS011;15183;51.350;11.102;2022-09-16T14:03:40;4.07;;;0.50;;
27804;SDS011;15183;51.350;11.102;2022-09-16T14:06:43;2.15;;;0.70;;
27804;SDS011;15183;51.350;11.102;2022-09-16T14:14:57;4.22;;;0.77;;
27804;SDS011;15183;51.350;11.102;2022-09-16T14:17:25;2.50;;;0.80;;
27804;SDS011;15183;51.350;11.102;2022-09-16T14:20:02;1.75;;;0.52;;
27804;SDS011;15183;51.350;11.102;2022-09-16T14:22:29;1.75;;;0.60;;
27804;SDS011;15183;51.350;11.102;2022-09-16T14:24:56;1.00;;;0.50;;
27804;SDS011;15183;51.350;11.102;2022-09-16T14:27:27;1.83;;;0.45;;
27804;SDS011;15183;51.350;11.102;2022-09-16T14:30:02;1.98;;;0.47;;
27804;SDS011;15183;51.350;11.102;2022-09-16T14:32:37;2.58;;;0.60;;
27804;SDS011;15183;51.350;11.102;2022-09-16T14:35:09;3.10;;;0.77;;
27804;SDS011;15183;51.350;11.102;2022-09-16T14:37:49;2.25;;;0.70;;
27804;SDS011;15183;51.350;11.102;2022-09-16T14:40:20;1.95;;;0.50;;
27804;SDS011;15183;51.350;11.102;2022-09-16T14:42:57;2.25;;;0.68;;
27804;SDS011;15183;51.350;11.102;2022-09-16T14:45:28;2.53;;;0.73;;
27804;SDS011;15183;51.350;11.102;2022-09-16T14:47:56;1.20;;;0.70;;
27804;SDS011;15183;51.350;11.102;2022-09-16T14:50:27;2.92;;;0.70;;
27804;SDS011;15183;51.350;11.102;2022-09-16T14:55:31;3.42;;;0.40;;
27804;SDS011;15183;51.350;11.102;2022-09-16T14:58:02;3.90;;;0.90;;
27804;SDS011;15183;51.350;11.102;2022-09-16T15:00:30;3.28;;;1.75;;
27804;SDS011;15183;51.350;11.102;2022-09-16T15:05:49;10.32;;;4.75;;
27804;SDS011;15183;51.350;11.102;2022-09-16T15:08:23;7.22;;;3.83;;
27804;SDS011;15183;51.350;11.102;2022-09-16T15:11:08;4.97;;;2.78;;
27804;SDS011;15183;51.350;11.102;2022-09-16T15:13:43;2.70;;;1.30;;
27804;SDS011;15183;51.350;11.102;2022-09-16T15:18:43;2.00;;;1.20;;
27804;SDS011;15183;51.350;11.102;2022-09-16T15:21:32;3.53;;;0.85;;
27804;SDS011;15183;51.350;11.102;2022-09-16T15:24:02;1.65;;;0.50;;
27804;SDS011;15183;51.350;11.102;2022-09-16T15:26:40;2.33;;;0.50;;
27804;SDS011;15183;51.350;11.102;2022-09-16T15:29:12;2.53;;;0.57;;
27804;SDS011;15183;51.350;11.102;2022-09-16T15:34:49;2.95;;;0.90;;
27804;SDS011;15183;51.350;11.102;2022-09-16T15:37:36;1.92;;;0.60;;
27804;SDS011;15183;51.350;11.102;2022-09-16T15:40:08;3.17;;;0.95;;
27804;SDS011;15183;51.350;11.102;2022-09-16T15:43:02;2.17;;;0.68;;
27804;SDS011;15183;51.350;11.102;2022-09-16T15:45:37;8.53;;;4.97;;
27804;SDS011;15183;51.350;11.102;2022-09-16T15:50:43;2.20;;;1.00;;
27804;SDS011;15183;51.350;11.102;2022-09-16T15:53:59;4.05;;;1.55;;
27804;SDS011;15183;51.350;11.102;2022-09-16T15:56:08;3.58;;;1.83;;
27804;SDS011;15183;51.350;11.102;2022-09-16T15:58:48;5.15;;;1.20;;
27804;SDS011;15183;51.350;11.102;2022-09-16T16:01:42;1.63;;;0.90;;
27804;SDS011;15183;51.350;11.102;2022-09-16T16:04:20;3.83;;;1.00;;
27804;SDS011;15183;51.350;11.102;2022-09-16T16:06:58;2.97;;;1.38;;
27804;SDS011;15183;51.350;11.102;2022-09-16T16:09:31;4.30;;;2.03;;
27804;SDS011;15183;51.350;11.102;2022-09-16T16:12:04;1.35;;;0.80;;
27804;SDS011;15183;51.350;11.102;2022-09-16T16:14:41;2.03;;;1.13;;
27804;SDS011;15183;51.350;11.102;2022-09-16T16:17:12;2.08;;;0.57;;
27804;SDS011;15183;51.350;11.102;2022-09-16T16:19:43;1.55;;;1.02;;
27804;SDS011;15183;51.350;11.102;2022-09-16T16:22:11;3.00;;;1.10;;
27804;SDS011;15183;51.350;11.102;2022-09-16T16:24:39;1.88;;;1.15;;
27804;SDS011;15183;51.350;11.102;2022-09-16T16:27:05;4.38;;;1.20;;
27804;SDS011;15183;51.350;11.102;2022-09-16T16:29:33;2.40;;;0.88;;
27804;SDS011;15183;51.350;11.102;2022-09-16T16:32:07;4.63;;;0.90;;
27804;SDS011;15183;51.350;11.102;2022-09-16T16:34:37;3.58;;;1.00;;
27804;SDS011;15183;51.350;11.102;2022-09-16T16:37:06;2.03;;;0.82;;
27804;SDS011;15183;51.350;11.102;2022-09-16T16:39:34;0.95;;;0.95;;
27804;SDS011;15183;51.350;11.102;2022-09-16T16:42:01;1.90;;;0.80;;
27804;SDS011;15183;51.350;11.102;2022-09-16T16:44:30;2.20;;;1.17;;
27804;SDS011;15183;51.350;11.102;2022-09-16T16:46:58;2.97;;;1.42;;
27804;SDS011;15183;51.350;11.102;2022-09-16T16:49:25;3.92;;;1.40;;
27804;SDS011;15183;51.350;11.102;2022-09-16T16:51:52;6.75;;;5.45;;
27804;SDS011;15183;51.350;11.102;2022-09-16T16:54:22;7.20;;;3.92;;
27804;SDS011;15183;51.350;11.102;2022-09-16T16:56:50;6.50;;;2.85;;
27804;SDS011;15183;51.350;11.102;2022-09-16T16:59:16;4.00;;;2.00;;
27804;SDS011;15183;51.350;11.102;2022-09-16T17:01:44;2.38;;;1.70;;
27804;SDS011;15183;51.350;11.102;2022-09-16T17:04:12;5.40;;;3.22;;
27804;SDS011;15183;51.350;11.102;2022-09-16T17:06:39;4.70;;;2.80;;
27804;SDS011;15183;51.350;11.102;2022-09-16T17:09:06;4.72;;;2.88;;
27804;SDS011;15183;51.350;11.102;2022-09-16T17:11:34;4.57;;;3.13;;
27804;SDS011;15183;51.350;11.102;2022-09-16T17:14:03;5.93;;;3.25;;
27804;SDS011;15183;51.350;11.102;2022-09-16T17:16:32;9.98;;;7.03;;
27804;SDS011;15183;51.350;11.102;2022-09-16T17:19:00;7.78;;;4.63;;
27804;SDS011;15183;51.350;11.102;2022-09-16T17:21:30;10.82;;;5.72;;
27804;SDS011;15183;51.350;11.102;2022-09-16T17:23:59;7.43;;;4.72;;
27804;SDS011;15183;51.350;11.102;2022-09-16T17:26:25;7.88;;;3.85;;
27804;SDS011;15183;51.350;11.102;2022-09-16T17:28:53;9.50;;;4.65;;
27804;SDS011;15183;51.350;11.102;2022-09-16T17:31:23;4.43;;;3.63;;
27804;SDS011;15183;51.350;11.102;2022-09-16T17:33:54;5.43;;;3.75;;
27804;SDS011;15183;51.350;11.102;2022-09-16T17:36:23;6.00;;;4.38;;
27804;SDS011;15183;51.350;11.102;2022-09-16T17:38:54;4.65;;;3.05;;
27804;SDS011;15183;51.350;11.102;2022-09-16T17:41:27;5.68;;;3.75;;
27804;SDS011;15183;51.350;11.102;2022-09-16T17:43:55;9.40;;;3.72;;
27804;SDS011;15183;51.350;11.102;2022-09-16T17:46:23;7.20;;;3.22;;
27804;SDS011;15183;51.350;11.102;2022-09-16T17:49:00;5.13;;;3.30;;
27804;SDS011;15183;51.350;11.102;2022-09-16T17:51:29;8.27;;;4.93;;
27804;SDS011;15183;51.350;11.102;2022-09-16T17:53:58;6.07;;;3.45;;
27804;SDS011;15183;51.350;11.102;2022-09-16T17:56:24;6.60;;;3.88;;
27804;SDS011;15183;51.350;11.102;2022-09-16T17:58:51;7.75;;;3.17;;
27804;SDS011;15183;51.350;11.102;2022-09-16T18:01:20;7.63;;;4.25;;
27804;SDS011;15183;51.350;11.102;2022-09-16T18:03:50;10.23;;;4.85;;
27804;SDS011;15183;51.350;11.102;2022-09-16T18:06:20;9.25;;;4.72;;
27804;SDS011;15183;51.350;11.102;2022-09-16T18:08:52;7.30;;;4.82;;
27804;SDS011;15183;51.350;11.102;2022-09-16T18:11:20;7.00;;;4.18;;